Time;durP1;ratioP1;P1;durP2;ratioP2;P2;SDS_P1;SDS_P2;PMS_P1;PMS_P2;Temp;Humidity;BMP_temperature;BMP_pressure;BME280_temperature;BME280_humidity;BME280_pressure;Samples;Min_cycle;Max_cycle;Signal;HPM_P1;HPM_P2
2023/05/14 00:00:02;;;;;;;18.50;13.30;;;;;;;13.58;79.06;98101.03;10277484;28;20575;-53
2023/05/14 00:05:01;;;;;;;18.65;12.95;;;;;;;13.65;78.59;98087.06;10281104;28;20568;-53
2023/05/14 00:10:00;;;;;;;;;;;;;;;13.71;78.07;98083.56;10285401;28;20037;-53
2023/05/14 00:14:59;;;;;;;15.73;12.02;;;;;;;13.72;78.03;98087.88;10282333;28;19913;-53
2023/05/14 00:19:58;;;;;;;17.75;12.43;;;;;;;13.74;78.26;98101.78;10278770;28;20220;-52
2023/05/14 00:24:58;;;;;;;17.25;12.38;;;;;;;13.59;78.24;98068.88;10280652;28;20527;-52
2023/05/14 00:29:57;;;;;;;;;;;;;;;13.52;79.27;98099.31;10285189;28;20087;-53
2023/05/14 00:34:56;;;;;;;13.25;9.75;;;;;;;13.31;80.11;98083.81;10285132;28;20446;-53
2023/05/14 00:39:55;;;;;;;15.63;11.55;;;;;;;13.27;80.04;98071.69;10284830;28;20084;-54
2023/05/14 00:44:54;;;;;;;;;;;;;;;13.45;79.12;98063.72;10285222;28;20060;-53
2023/05/14 00:49:53;;;;;;;16.75;11.55;;;;;;;13.53;79.13;98059.31;10283830;28;19975;-53
2023/05/14 00:54:53;;;;;;;16.35;11.57;;;;;;;13.52;79.07;98073.25;10284130;28;20073;-53
2023/05/14 00:59:52;;;;;;;15.15;12.10;;;;;;;13.44;79.16;98066.34;10283391;28;20653;-53
2023/05/14 01:04:52;;;;;;;17.67;12.13;;;;;;;13.34;79.10;98057.72;10283804;28;20128;-52
2023/05/14 01:10:00;;;;;;;14.40;9.95;;;;;;;13.32;78.94;98059.47;10284218;28;20124;-53
2023/05/14 01:15:17;;;;;;;12.65;9.52;;;;;;;13.26;78.69;98046.50;10282731;28;20065;-53
2023/05/14 01:20:16;;;;;;;12.57;8.95;;;;;;;13.29;78.56;98049.94;10282164;28;20125;-52
2023/05/14 01:25:15;;;;;;;12.93;9.93;;;;;;;13.28;78.30;98049.94;10281768;28;20125;-52
2023/05/14 01:30:14;;;;;;;;;;;;;;;13.34;77.74;98049.91;10282785;28;20038;-52
2023/05/14 01:35:14;;;;;;;15.00;10.07;;;;;;;13.23;78.11;98033.47;10280707;28;20039;-53
2023/05/14 01:40:13;;;;;;;13.02;10.38;;;;;;;13.28;77.87;98042.13;10281744;28;20145;-53
2023/05/14 01:45:12;;;;;;;13.52;10.18;;;;;;;13.35;77.65;98057.72;10282208;28;20088;-53
2023/05/14 01:50:11;;;;;;;;;;;;;;;13.23;78.26;98067.34;10282315;28;20041;-52
2023/05/14 01:55:10;;;;;;;15.18;9.90;;;;;;;12.75;79.46;98043.34;10281777;28;19928;-52
2023/05/14 02:00:09;;;;;;;16.33;10.43;;;;;;;12.90;79.83;98080.56;10281206;28;20038;-53
2023/05/14 02:05:10;;;;;;;15.25;11.05;;;;;;;12.99;80.18;98071.84;10281888;28;20072;-52
2023/05/14 02:10:09;;;;;;;13.85;11.20;;;;;;;12.79;79.93;98013.78;10281112;28;20117;-53
2023/05/14 02:15:09;;;;;;;16.23;12.05;;;;;;;13.11;80.60;98079.59;10281151;28;20475;-53
2023/05/14 02:20:09;;;;;;;14.20;12.52;;;;;;;13.15;80.77;98083.91;10281372;28;20129;-53
2023/05/14 02:25:08;;;;;;;15.90;12.98;;;;;;;13.22;81.06;98086.50;10280839;28;20495;-52
2023/05/14 02:30:08;;;;;;;15.00;12.52;;;;;;;13.20;81.39;98072.59;10279082;28;20068;-52
2023/05/14 02:35:07;;;;;;;17.23;12.65;;;;;;;13.23;81.67;98085.59;10280376;28;20084;-52
2023/05/14 02:40:07;;;;;;;16.83;12.43;;;;;;;13.26;81.81;98080.38;10280294;28;20065;-53
2023/05/14 02:45:06;;;;;;;14.43;12.48;;;;;;;13.24;81.58;98084.75;10279987;28;20184;-52
2023/05/14 02:50:06;;;;;;;16.42;12.52;;;;;;;13.21;81.93;98079.53;10282724;28;20073;-53
2023/05/14 02:55:05;;;;;;;16.13;13.20;;;;;;;13.21;81.94;98080.41;10282082;28;20076;-54
2023/05/14 03:00:05;;;;;;;17.73;14.40;;;;;;;13.24;82.60;98075.19;10281677;28;20500;-53
2023/05/14 03:05:04;;;;;;;18.52;14.05;;;;;;;13.02;82.67;98037.09;10282221;28;20346;-53
2023/05/14 03:10:04;;;;;;;19.48;13.48;;;;;;;13.32;83.00;98085.53;10281598;28;20077;-53
2023/05/14 03:15:03;;;;;;;16.90;14.02;;;;;;;13.00;83.79;98039.72;10281718;28;20073;-53
2023/05/14 03:20:03;;;;;;;19.08;13.57;;;;;;;13.28;83.73;98082.09;10281079;28;20105;-52
2023/05/14 03:25:02;;;;;;;17.13;14.15;;;;;;;13.35;84.17;98094.22;10281190;28;20566;-53
2023/05/14 03:30:01;;;;;;;17.13;14.70;;;;;;;13.28;84.68;98096.84;10281979;28;20543;-52
2023/05/14 03:35:00;;;;;;;18.25;14.20;;;;;;;12.96;87.19;98108.34;10281208;28;20068;-53
2023/05/14 03:39:59;;;;;;;;;;;;;;;12.93;87.53;98101.41;10284672;28;20040;-51
2023/05/14 03:44:58;;;;;;;18.98;14.77;;;;;;;12.98;88.08;98101.38;10289089;28;20138;-53
2023/05/14 03:49:57;;;;;;;21.58;15.73;;;;;;;12.81;88.13;98084.97;10288858;28;20523;-53
2023/05/14 03:54:56;;;;;;;;;;;;;;;12.98;87.49;98083.16;10289608;28;20038;-53
2023/05/14 03:59:55;;;;;;;14.77;12.93;;;;;;;13.14;86.73;98079.59;10288805;28;20101;-53
2023/05/14 04:04:54;;;;;;;15.57;12.15;;;;;;;13.36;85.93;98101.16;10289496;28;20077;-53
2023/05/14 04:09:52;;;;;;;;;;;;;;;13.58;85.50;98088.00;10289240;28;20112;-53
2023/05/14 04:14:51;;;;;;;16.17;12.82;;;;;;;13.74;85.52;98091.34;10288824;28;19960;-53
2023/05/14 04:19:50;;;;;;;15.30;12.85;;;;;;;13.87;84.07;98106.03;10288228;28;20065;-53
2023/05/14 04:24:50;;;;;;;;;;;;;;;13.91;84.42;98104.25;10288694;28;20113;-53
2023/05/14 04:29:49;;;;;;;16.55;12.45;;;;;;;13.99;82.96;98090.25;10286737;28;19960;-53
2023/05/14 04:34:48;;;;;;;15.48;13.52;;;;;;;14.11;82.77;98086.66;10287741;28;20073;-53
2023/05/14 04:39:47;;;;;;;;;;;;;;;14.22;82.61;98094.41;10287381;28;20414;-53
2023/05/14 04:44:46;;;;;;;16.95;13.02;;;;;;;14.40;81.46;98089.00;10288071;28;19913;-53
2023/05/14 04:49:45;;;;;;;;;;;;;;;14.46;79.88;98093.25;10288184;28;20501;-53
2023/05/14 04:54:43;;;;;;;15.45;12.63;;;;;;;14.51;78.59;98096.69;10286639;28;19964;-55
2023/05/14 04:59:42;;;;;;;;;;;;;;;14.57;79.65;98114.03;10280709;28;20124;-53
2023/05/14 05:04:41;;;;;;;19.98;13.93;;;;;;;14.68;79.94;98106.94;10281907;28;19936;-53
2023/05/14 05:09:41;;;;;;;;;;;;;;;14.49;80.22;98113.25;10281342;28;20312;-53
2023/05/14 05:14:40;;;;;;;17.30;13.90;;;;;;;14.46;81.34;98123.75;10281272;28;19971;-53
2023/05/14 05:19:39;;;;;;;;;;;;;;;14.33;81.30;98122.97;10282628;28;20109;-53
2023/05/14 05:24:37;;;;;;;16.63;13.65;;;;;;;13.70;85.27;98139.19;10280712;28;20011;-53
2023/05/14 05:29:36;;;;;;;;;;;;;;;13.68;86.48;98147.03;10281202;28;20468;-53
2023/05/14 05:34:35;;;;;;;19.73;13.80;;;;;;;13.27;86.90;98121.19;10281573;28;20379;-53
2023/05/14 05:39:34;;;;;;;;;;;;;;;13.51;87.50;98164.50;10280808;28;20057;-53
2023/05/14 05:44:33;;;;;;;20.03;14.40;;;;;;;13.40;87.27;98175.00;10281428;28;20350;-53
2023/05/14 05:49:32;;;;;;;;;;;;;;;13.51;87.33;98183.59;10281334;28;20129;-53
2023/05/14 05:54:31;;;;;;;15.73;12.23;;;;;;;13.67;85.48;98184.41;10280557;28;19914;-54
2023/05/14 05:59:30;;;;;;;13.13;11.15;;;;;;;13.76;85.30;98193.94;10279460;28;20217;-53
2023/05/14 06:04:29;;;;;;;;;;;;;;;13.59;86.67;98201.00;10277125;28;20165;-53
2023/05/14 06:09:27;;;;;;;18.10;12.93;;;;;;;13.35;90.41;98203.69;10277530;28;19949;-53
2023/05/14 06:14:26;;;;;;;18.10;12.75;;;;;;;13.31;90.87;98198.50;10279716;28;20060;-52
2023/05/14 06:19:25;;;;;;;;;;;;;;;13.31;92.31;98195.91;10279281;28;20041;-51
2023/05/14 06:24:24;;;;;;;16.88;12.63;;;;;;;13.26;92.06;98169.00;10270487;28;19968;-52
2023/05/14 06:29:24;;;;;;;;;;;;;;;13.18;85.08;98181.19;10271109;28;20029;-53
2023/05/14 06:34:23;;;;;;;9.15;4.50;;;;;;;13.21;82.34;98168.13;10276806;28;19999;-53
2023/05/14 06:39:24;;;;;;;;;;;;;;;13.30;82.64;98162.88;10278687;28;20038;-53
2023/05/14 06:44:23;;;;;;;7.13;4.82;;;;;;;13.18;78.50;98173.38;10275074;28;20005;-53
2023/05/14 06:49:22;;;;;;;;;;;;;;;13.10;77.14;98176.88;10279521;28;20034;-53
2023/05/14 06:54:21;;;;;;;7.20;5.00;;;;;;;13.16;77.77;98181.19;10279819;28;19944;-53
2023/05/14 06:59:20;;;;;;;11.93;5.90;;;;;;;13.05;77.20;98168.22;10279044;28;20488;-53
2023/05/14 07:04:18;;;;;;;;;;;;;;;13.05;77.04;98178.63;10279777;28;20045;-52
2023/05/14 07:09:17;;;;;;;9.88;7.07;;;;;;;13.14;77.84;98190.75;10277973;28;20070;-53
2023/05/14 07:14:16;;;;;;;;;;;;;;;13.24;77.85;98183.78;10278444;28;20034;-53
2023/05/14 07:19:15;;;;;;;8.68;6.10;;;;;;;13.18;77.72;98176.84;10276565;28;20036;-52
2023/05/14 07:24:14;;;;;;;;;;;;;;;13.32;78.72;98161.13;10277770;28;20500;-53
2023/05/14 07:29:13;;;;;;;8.45;6.20;;;;;;;13.40;78.79;98168.91;10277783;28;20565;-53
2023/05/14 07:34:11;;;;;;;;;;;;;;;13.48;80.34;98187.97;10273807;28;20056;-53
2023/05/14 07:39:10;;;;;;;11.38;7.15;;;;;;;13.52;81.27;98185.34;10277393;28;20007;-52
2023/05/14 07:44:09;;;;;;;;;;;;;;;13.50;81.21;98201.88;10275669;28;20037;-52
2023/05/14 07:49:08;;;;;;;9.15;6.93;;;;;;;13.24;81.44;98168.13;10274274;28;19921;-53
2023/05/14 07:54:07;;;;;;;;;;;;;;;13.46;81.88;98203.63;10278440;28;20076;-53
2023/05/14 07:59:06;;;;;;;13.93;9.00;;;;;;;13.45;82.62;98204.50;10277548;28;19921;-52
2023/05/14 08:04:05;;;;;;;13.23;8.88;;;;;;;13.60;82.54;98200.13;10278164;28;20141;-52
2023/05/14 08:09:04;;;;;;;;;;;;;;;13.70;82.29;98204.38;10278496;28;20026;-53
2023/05/14 08:14:03;;;;;;;13.75;9.00;;;;;;;13.89;81.45;98195.59;10275800;28;20415;-53
2023/05/14 08:19:01;;;;;;;;;;;;;;;14.19;81.87;98188.38;10277650;28;20036;-53
2023/05/14 08:24:00;;;;;;;11.43;7.70;;;;;;;14.32;81.59;98196.97;10278981;28;20306;-53
2023/05/14 08:28:59;;;;;;;;;;;;;;;14.75;81.67;98199.19;10281721;28;20026;-53
2023/05/14 08:33:58;;;;;;;12.43;7.43;;;;;;;14.85;81.01;98194.72;10284394;28;19913;-53
2023/05/14 08:38:57;;;;;;;;;;;;;;;14.86;78.30;98186.88;10285019;28;20500;-53
2023/05/14 08:44:10;;;;;;;9.35;7.15;;;;;;;14.93;79.32;98177.22;10283822;28;20461;-53
2023/05/14 08:49:31;;;;;;;11.07;7.90;;;;;;;14.70;79.24;98139.16;10283429;28;20600;-53
2023/05/14 08:54:31;;;;;;;9.32;5.88;;;;;;;14.96;77.56;98182.41;10283833;28;20084;-53
2023/05/14 08:59:30;;;;;;;9.48;6.53;;;;;;;14.85;78.13;98163.38;10282882;28;20121;-53
2023/05/14 09:04:31;;;;;;;9.13;5.80;;;;;;;15.04;77.39;98159.69;10283732;28;20065;-53
2023/05/14 09:09:30;;;;;;;11.05;6.43;;;;;;;15.18;78.04;98157.75;10283623;28;20740;-53
2023/05/14 09:14:29;;;;;;;10.00;6.80;;;;;;;15.37;78.15;98141.81;10282348;28;20061;-52
2023/05/14 09:19:28;;;;;;;9.52;6.53;;;;;;;15.60;77.14;98142.34;10283063;28;20040;-53
2023/05/14 09:24:29;;;;;;;;;;;;;;;15.68;76.85;98145.69;10282828;28;20034;-52
2023/05/14 09:29:29;;;;;;;10.13;7.53;;;;;;;15.44;77.92;98096.38;10281689;28;20041;-53
2023/05/14 09:34:33;;;;;;;8.60;6.18;;;;;;;16.14;76.60;98135.38;10282290;28;20133;-53
2023/05/14 09:39:33;;;;;;;9.70;6.95;;;;;;;16.34;77.61;98107.09;10281230;28;20487;-53
2023/05/14 09:44:32;;;;;;;11.25;6.90;;;;;;;16.59;75.79;98138.09;10282516;28;20073;-53
2023/05/14 09:49:31;;;;;;;8.90;6.65;;;;;;;16.52;75.03;98074.47;10281385;28;20062;-53
2023/05/14 09:54:30;;;;;;;8.48;5.55;;;;;;;17.13;72.69;98099.44;10277528;28;20117;-53
2023/05/14 09:59:29;;;;;;;9.38;6.68;;;;;;;17.54;72.18;98074.03;10281109;28;20069;-53
2023/05/14 10:04:28;;;;;;;10.00;7.40;;;;;;;18.01;71.62;98093.91;10280075;28;20026;-54
2023/05/14 10:09:28;;;;;;;8.80;5.85;;;;;;;17.96;68.51;98088.75;10272576;28;20018;-53
2023/05/14 10:14:41;;;;;;;8.23;6.18;;;;;;;17.81;68.88;98079.53;10280694;28;20117;-53
2023/05/14 10:19:40;;;;;;;8.05;5.70;;;;;;;18.02;67.73;98072.88;10280250;28;20113;-53
2023/05/14 10:24:40;;;;;;;7.80;5.30;;;;;;;18.08;66.10;98071.81;10280401;28;20034;-54
2023/05/14 10:29:40;;;;;;;8.38;6.30;;;;;;;18.00;66.27;98069.41;10280697;28;20072;-54
2023/05/14 10:34:44;;;;;;;8.40;7.28;;;;;;;18.02;68.83;98064.13;10281295;28;20069;-53
2023/05/14 10:40:13;;;;;;;6.97;5.75;;;;;;;18.12;67.78;98055.94;10279710;28;20466;-54
2023/05/14 10:45:13;;;;;;;7.25;5.97;;;;;;;18.22;68.17;98034.69;10278644;28;20145;-54
2023/05/14 10:50:16;;;;;;;11.85;8.10;;;;;;;17.85;66.44;98005.03;10278554;28;20477;-53
2023/05/14 10:55:16;;;;;;;9.93;7.43;;;;;;;17.23;66.80;97994.31;10279916;28;20084;-53
2023/05/14 11:00:15;;;;;;;8.93;7.30;;;;;;;17.06;70.31;98036.69;10280161;28;20069;-53
2023/05/14 11:05:16;;;;;;;10.75;8.27;;;;;;;17.04;72.23;98041.09;10279798;28;20061;-53
2023/05/14 11:10:17;;;;;;;11.00;8.63;;;;;;;16.92;73.41;98042.22;10279745;28;20512;-53
2023/05/14 11:15:20;;;;;;;10.27;6.82;;;;;;;16.61;72.28;98026.25;10279321;28;20117;-53
2023/05/14 11:20:20;;;;;;;9.27;6.90;;;;;;;16.44;73.28;98035.34;10278711;28;20066;-55
2023/05/14 11:25:20;;;;;;;11.38;7.80;;;;;;;16.11;72.93;98043.81;10278596;28;20502;-53
2023/05/14 11:30:20;;;;;;;10.57;7.57;;;;;;;15.85;74.19;98043.41;10278763;28;20109;-53
2023/05/14 11:35:19;;;;;;;10.07;6.18;;;;;;;15.52;74.70;98026.50;10278619;28;20133;-53
2023/05/14 11:40:18;;;;;;;12.05;7.88;;;;;;;15.07;75.95;97987.13;10278718;28;20125;-54
2023/05/14 11:45:28;;;;;;;11.13;7.88;;;;;;;15.37;76.60;98035.47;10278836;28;20464;-53
2023/05/14 11:50:27;;;;;;;10.35;7.40;;;;;;;15.48;76.64;98023.94;10278274;28;20511;-53
2023/05/14 11:55:26;;;;;;;9.80;7.32;;;;;;;15.93;76.60;98003.13;10278691;28;20564;-53
2023/05/14 12:00:25;;;;;;;8.52;6.53;;;;;;;16.37;75.61;97976.13;10279507;28;20156;-54
2023/05/14 12:05:24;;;;;;;6.15;5.45;;;;;;;16.41;73.28;97982.13;10285944;28;20478;-54
2023/05/14 12:10:24;;;;;;;7.40;5.93;;;;;;;16.49;73.12;97991.56;10286092;28;20463;-53
2023/05/14 12:15:23;;;;;;;9.88;7.38;;;;;;;16.57;73.57;97982.69;10285439;28;20076;-53
2023/05/14 12:20:24;;;;;;;7.90;6.10;;;;;;;16.60;73.24;97977.34;10285435;28;20114;-53
2023/05/14 12:25:24;;;;;;;9.65;7.78;;;;;;;16.64;73.73;97979.03;10283140;28;20125;-53
2023/05/14 12:30:23;;;;;;;13.23;9.70;;;;;;;16.82;75.87;97962.94;10284121;28;20465;-53
2023/05/14 12:35:22;;;;;;;9.27;6.00;;;;;;;16.79;73.50;97939.34;10281664;28;20500;-53
2023/05/14 12:40:21;;;;;;;7.90;5.40;;;;;;;17.00;71.93;97938.03;10283787;28;20041;-53
2023/05/14 12:45:20;;;;;;;7.03;5.40;;;;;;;17.12;69.44;97918.50;10283814;28;20026;-53
2023/05/14 12:50:19;;;;;;;7.05;5.07;;;;;;;17.14;68.46;97932.44;10284245;28;20073;-53
2023/05/14 12:55:19;;;;;;;7.13;5.00;;;;;;;17.20;66.97;97916.59;10283816;28;20069;-54
2023/05/14 13:00:18;;;;;;;8.23;5.90;;;;;;;17.43;67.02;97899.41;10283168;28;20069;-54
2023/05/14 13:05:17;;;;;;;7.82;5.55;;;;;;;17.14;66.25;97856.41;10281961;28;20156;-53
2023/05/14 13:10:17;;;;;;;8.02;6.32;;;;;;;17.45;65.64;97902.81;10281782;28;20117;-53
2023/05/14 13:15:16;;;;;;;6.70;5.03;;;;;;;17.35;63.69;97897.84;10281492;28;20132;-53
2023/05/14 13:20:17;;;;;;;6.65;5.30;;;;;;;17.11;65.17;97838.16;10282428;28;20029;-53
2023/05/14 13:25:15;;;;;;;6.22;5.22;;;;;;;17.63;64.97;97883.09;10281930;28;20117;-52
2023/05/14 13:30:18;;;;;;;5.60;4.90;;;;;;;17.56;63.98;97892.91;10281698;28;20116;-54
2023/05/14 13:35:17;;;;;;;5.47;4.68;;;;;;;17.40;63.37;97886.34;10282098;28;20825;-53
2023/05/14 13:40:16;;;;;;;9.75;5.72;;;;;;;17.00;64.87;97813.97;10281516;28;20106;-54
2023/05/14 13:45:15;;;;;;;7.38;4.97;;;;;;;17.38;64.71;97872.41;10281539;28;20112;-53
2023/05/14 13:50:14;;;;;;;9.98;5.57;;;;;;;17.39;65.01;97875.00;10281066;28;20461;-53
2023/05/14 13:55:13;;;;;;;6.90;5.00;;;;;;;17.22;63.42;97878.06;10281727;28;20128;-53
2023/05/14 14:00:13;;;;;;;6.28;5.05;;;;;;;16.97;62.75;97877.81;10281278;28;20125;-53
2023/05/14 14:05:12;;;;;;;9.57;5.68;;;;;;;16.83;64.15;97869.44;10280526;28;20129;-53
2023/05/14 14:10:11;;;;;;;7.70;5.70;;;;;;;16.75;64.99;97866.97;10279724;28;20034;-53
2023/05/14 14:15:10;;;;;;;8.05;5.90;;;;;;;16.64;64.41;97874.22;10279808;28;20101;-54
2023/05/14 14:20:10;;;;;;;9.32;5.90;;;;;;;16.49;64.94;97865.81;10280407;28;20038;-53
2023/05/14 14:25:11;;;;;;;7.78;6.40;;;;;;;16.26;65.47;97866.34;10280013;28;20061;-53
2023/05/14 14:30:14;;;;;;;11.20;6.30;;;;;;;16.15;66.42;97875.31;10278853;28;20072;-53
2023/05/14 14:35:14;;;;;;;9.50;6.50;;;;;;;15.87;67.21;97866.28;10280038;28;20124;-53
2023/05/14 14:40:15;;;;;;;8.27;6.00;;;;;;;15.70;68.27;97842.19;10279030;28;20330;-54
2023/05/14 14:45:14;;;;;;;9.23;6.07;;;;;;;15.44;68.57;97840.09;10279337;28;20482;-53
2023/05/14 14:50:13;;;;;;;7.47;5.95;;;;;;;15.37;69.26;97852.41;10277893;28;20607;-53
2023/05/14 14:55:12;;;;;;;10.57;6.70;;;;;;;14.72;70.74;97797.81;10277549;28;20109;-53
2023/05/14 15:00:13;;;;;;;7.97;7.07;;;;;;;15.10;70.80;97851.16;10275806;28;20050;-53
2023/05/14 15:05:12;;;;;;;8.68;6.82;;;;;;;14.94;71.87;97844.47;10278448;28;20079;-53
2023/05/14 15:10:11;;;;;;;9.30;6.78;;;;;;;14.78;71.83;97833.41;10270974;28;20059;-53
2023/05/14 15:15:10;;;;;;;;;;;;;;;14.74;71.94;97826.53;10277291;28;20033;-53
2023/05/14 15:20:09;;;;;;;9.30;7.13;;;;;;;14.74;72.23;97832.59;10276632;28;19949;-54
2023/05/14 15:25:09;;;;;;;12.90;7.45;;;;;;;14.66;72.67;97828.34;10277789;28;20125;-53
2023/05/14 15:30:09;;;;;;;11.63;7.60;;;;;;;14.64;72.93;97846.69;10278453;28;20061;-53
2023/05/14 15:35:08;;;;;;;10.93;6.60;;;;;;;14.27;72.58;97774.16;10277396;28;20439;-53
2023/05/14 15:40:08;;;;;;;10.57;6.38;;;;;;;14.54;72.92;97837.25;10287319;28;20117;-53
2023/05/14 15:45:09;;;;;;;11.35;7.22;;;;;;;14.68;72.79;97845.72;10285855;28;20065;-53
2023/05/14 15:50:08;;;;;;;10.02;7.18;;;;;;;14.58;72.77;97823.25;10285351;28;20598;-52
2023/05/14 15:55:07;;;;;;;9.68;7.18;;;;;;;14.67;72.50;97846.63;10282322;28;20073;-53
2023/05/14 16:00:09;;;;;;;10.60;7.80;;;;;;;14.54;73.38;97851.16;10283348;28;20199;-53
2023/05/14 16:05:08;;;;;;;13.82;7.97;;;;;;;14.57;74.00;97856.34;10285576;28;20132;-53
2023/05/14 16:10:07;;;;;;;;;;;;;;;14.54;73.85;97858.13;10285707;28;20034;-53
2023/05/14 16:15:07;;;;;;;9.13;7.23;;;;;;;14.57;73.80;97871.16;10284635;28;19964;-52
2023/05/14 16:20:06;;;;;;;8.80;6.80;;;;;;;14.51;73.78;97860.81;10284682;28;20073;-53
2023/05/14 16:25:06;;;;;;;9.85;7.82;;;;;;;14.04;73.72;97786.66;10284486;28;20127;-53
2023/05/14 16:30:06;;;;;;;10.70;7.55;;;;;;;14.44;74.27;97867.88;10283683;28;20480;-53
2023/05/14 16:35:05;;;;;;;9.85;7.57;;;;;;;14.40;74.33;97867.06;10285350;28;20121;-53
2023/05/14 16:40:04;;;;;;;9.15;7.47;;;;;;;14.32;74.32;97865.44;10284767;28;20122;-53
2023/05/14 16:45:03;;;;;;;10.23;7.80;;;;;;;14.33;75.11;97864.53;10283485;28;20631;-53
2023/05/14 16:50:02;;;;;;;9.10;7.40;;;;;;;14.29;74.70;97860.25;10281523;28;20487;-53
2023/05/14 16:55:01;;;;;;;9.85;8.18;;;;;;;14.34;75.27;97861.06;10283582;28;20112;-53
2023/05/14 17:00:03;;;;;;;;;;;;;;;14.29;75.29;97855.91;10283453;28;20135;-54
2023/05/14 17:05:03;;;;;;;10.85;7.88;;;;;;;14.28;75.13;97848.94;10283093;28;19967;-53
2023/05/14 17:10:02;;;;;;;9.30;7.97;;;;;;;14.28;75.87;97848.94;10282907;28;20500;-53
2023/05/14 17:15:00;;;;;;;;;;;;;;;14.28;75.71;97837.66;10283313;28;20546;-53
2023/05/14 17:19:59;;;;;;;8.77;6.93;;;;;;;14.32;75.13;97834.97;10281880;28;19921;-53
2023/05/14 17:24:58;;;;;;;;;;;;;;;14.36;74.80;97828.81;10283416;28;20042;-52
2023/05/14 17:29:59;;;;;;;8.32;6.03;;;;;;;14.39;74.73;97831.38;10281060;28;20299;-52
2023/05/14 17:34:58;;;;;;;9.23;6.80;;;;;;;14.41;74.82;97824.38;10279643;28;20133;-53
2023/05/14 17:39:57;;;;;;;;;;;;;;;14.35;75.32;97807.94;10278292;28;20037;-53
2023/05/14 17:44:56;;;;;;;9.30;6.07;;;;;;;14.32;74.84;97803.66;10281130;28;20001;-53
2023/05/14 17:49:55;;;;;;;;;;;;;;;14.35;75.00;97803.59;10279930;28;20185;-53
2023/05/14 17:54:53;;;;;;;8.00;5.57;;;;;;;14.37;74.97;97796.59;10281739;28;20332;-53
2023/05/14 17:59:52;;;;;;;;;;;;;;;14.35;75.00;97795.75;10279096;28;20034;-54
2023/05/14 18:04:51;;;;;;;8.35;5.38;;;;;;;14.14;75.50;97788.25;10281009;28;19979;-53
2023/05/14 18:09:50;;;;;;;;;;;;;;;14.03;76.36;97800.59;10281643;28;20044;-53
2023/05/14 18:14:49;;;;;;;18.45;6.85;;;;;;;14.02;76.91;97806.69;10280648;28;19960;-53
2023/05/14 18:19:48;;;;;;;;;;;;;;;13.95;77.62;97808.53;10282072;28;20096;-53
2023/05/14 18:24:46;;;;;;;9.45;7.05;;;;;;;13.96;78.14;97800.69;10280356;28;19913;-53
2023/05/14 18:29:45;;;;;;;;;;;;;;;13.98;77.28;97793.72;10279384;28;20038;-53
2023/05/14 18:34:44;;;;;;;9.30;6.63;;;;;;;13.99;76.51;97774.56;10280102;28;19984;-53
2023/05/14 18:39:43;;;;;;;;;;;;;;;13.98;76.97;97798.94;10280397;28;20120;-55
2023/05/14 18:44:43;;;;;;;10.35;6.63;;;;;;;13.97;77.26;97822.41;10279484;28;19913;-52
2023/05/14 18:49:42;;;;;;;8.88;6.60;;;;;;;13.97;77.40;97801.53;10279954;28;20125;-53
2023/05/14 18:54:41;;;;;;;;;;;;;;;13.87;77.75;97795.59;10280316;28;20261;-52
2023/05/14 18:59:40;;;;;;;7.35;4.80;;;;;;;13.79;77.99;97766.13;10279170;28;20544;-53
2023/05/14 19:04:39;;;;;;;;;;;;;;;13.80;77.41;97769.59;10279278;28;20063;-53
2023/05/14 19:09:38;;;;;;;8.27;5.23;;;;;;;13.88;76.99;97776.44;10277965;28;20009;-52
2023/05/14 19:14:36;;;;;;;;;;;;;;;13.91;76.75;97779.03;10278507;28;20042;-53
2023/05/14 19:19:36;;;;;;;11.00;5.95;;;;;;;13.87;77.06;97807.78;10278569;28;20007;-53
2023/05/14 19:24:36;;;;;;;9.32;5.60;;;;;;;13.88;76.97;97805.13;10277806;28;20080;-53
2023/05/14 19:29:38;;;;;;;12.70;6.80;;;;;;;13.80;76.80;97787.84;10277111;28;20077;-53
2023/05/14 19:34:37;;;;;;;8.13;4.80;;;;;;;14.03;76.23;97800.59;10278139;28;20133;-53
2023/05/14 19:39:35;;;;;;;;;;;;;;;13.97;76.37;97788.50;10278068;28;20057;-53
2023/05/14 19:44:34;;;;;;;8.93;5.47;;;;;;;13.95;76.93;97792.88;10277218;28;19956;-53
2023/05/14 19:49:33;;;;;;;;;;;;;;;13.91;76.60;97791.19;10277167;28;20126;-52
2023/05/14 19:54:32;;;;;;;8.60;5.65;;;;;;;13.86;76.91;97783.41;10277856;28;20047;-53
2023/05/14 19:59:31;;;;;;;;;;;;;;;13.83;77.13;97788.69;10276503;28;20045;-53
2023/05/14 20:04:29;;;;;;;7.00;6.05;;;;;;;13.83;77.10;97772.19;10275853;28;19914;-52
2023/05/14 20:09:28;;;;;;;;;;;;;;;13.77;77.13;97767.91;10275645;28;20030;-53
2023/05/14 20:14:27;;;;;;;7.53;5.60;;;;;;;13.70;77.60;97759.31;10278179;28;19917;-52
2023/05/14 20:19:26;;;;;;;;;;;;;;;13.55;78.01;97747.31;10277783;28;20116;-53
2023/05/14 20:24:25;;;;;;;8.07;5.63;;;;;;;13.50;78.07;97736.06;10282567;28;20007;-53
2023/05/14 20:29:24;;;;;;;;;;;;;;;13.44;79.00;97741.34;10285286;28;20029;-51
2023/05/14 20:34:23;;;;;;;8.90;7.15;;;;;;;13.51;79.49;97748.22;10283328;28;20387;-52
2023/05/14 20:39:21;;;;;;;;;;;;;;;13.41;79.63;97733.56;10284770;28;20153;-53
2023/05/14 20:44:20;;;;;;;7.00;5.50;;;;;;;13.44;79.19;97733.53;10283850;28;19971;-53
2023/05/14 20:49:19;;;;;;;;;;;;;;;13.43;79.26;97726.59;10283647;28;20049;-52
2023/05/14 20:54:18;;;;;;;6.88;5.60;;;;;;;13.40;79.63;97713.63;10283423;28;19972;-54
2023/05/14 20:59:17;;;;;;;;;;;;;;;13.45;79.03;97721.38;10284376;28;20041;-53
2023/05/14 21:04:15;;;;;;;8.13;5.70;;;;;;;13.50;79.34;97724.78;10283112;28;20471;-55
2023/05/14 21:09:14;;;;;;;;;;;;;;;13.56;79.17;97741.25;10283943;28;20470;-53
2023/05/14 21:14:13;;;;;;;7.28;5.60;;;;;;;13.60;78.88;97749.03;10283653;28;19918;-52
2023/05/14 21:19:12;;;;;;;;;;;;;;;13.63;78.88;97723.75;10283168;28;20049;-52
2023/05/14 21:24:11;;;;;;;7.35;5.63;;;;;;;13.69;78.13;97718.47;10282920;28;19955;-53
2023/05/14 21:29:10;;;;;;;5.88;5.28;;;;;;;13.76;78.39;97707.06;10282425;28;20104;-53
2023/05/14 21:34:09;;;;;;;;;;;;;;;13.74;77.82;97698.38;10281439;28;20137;-53
2023/05/14 21:39:08;;;;;;;7.93;6.23;;;;;;;13.76;77.86;97703.59;10282658;28;19953;-53
2023/05/14 21:44:07;;;;;;;;;;;;;;;13.81;77.67;97706.13;10282490;28;20063;-52
2023/05/14 21:49:05;;;;;;;7.10;6.15;;;;;;;13.77;77.90;97705.31;10281256;28;19999;-53
2023/05/14 21:54:05;;;;;;;;;;;;;;;13.70;78.29;97714.09;10282397;28;20038;-53
2023/05/14 21:59:04;;;;;;;9.15;6.45;;;;;;;13.79;77.83;97708.75;10280972;28;20025;-53
2023/05/14 22:04:03;;;;;;;;;;;;;;;13.84;77.40;97696.50;10280848;28;20048;-53
2023/05/14 22:09:02;;;;;;;8.10;6.15;;;;;;;13.82;77.70;97713.06;10278198;28;19921;-53
2023/05/14 22:14:01;;;;;;;;;;;;;;;13.78;78.11;97699.22;10279380;28;20030;-53
2023/05/14 22:19:01;;;;;;;9.02;7.03;;;;;;;13.72;78.47;97701.91;10278201;28;21036;-52
2023/05/14 22:24:00;;;;;;;10.07;7.63;;;;;;;13.56;78.99;97681.28;10277593;28;20114;-52
2023/05/14 22:28:59;;;;;;;;;;;;;;;13.54;79.29;97688.25;10277462;28;20030;-53
2023/05/14 22:33:57;;;;;;;8.52;6.97;;;;;;;13.38;79.96;97691.06;10277574;28;20012;-53
2023/05/14 22:38:56;;;;;;;;;;;;;;;13.28;80.52;97679.88;10279950;28;20061;-52
2023/05/14 22:43:55;;;;;;;8.60;7.03;;;;;;;13.28;80.50;97679.88;10279927;28;19928;-53
2023/05/14 22:48:54;;;;;;;;;;;;;;;13.31;80.61;97664.22;10278878;28;20160;-53
2023/05/14 22:53:53;;;;;;;9.02;7.32;;;;;;;13.30;80.72;97642.47;10279689;28;19996;-53
2023/05/14 22:58:52;;;;;;;;;;;;;;;13.24;80.79;97629.56;10279891;28;20483;-53
2023/05/14 23:03:51;;;;;;;9.65;7.55;;;;;;;13.22;80.64;97648.69;10278963;28;20391;-53
2023/05/14 23:08:50;;;;;;;10.10;8.25;;;;;;;13.19;81.24;97654.81;10279280;28;20642;-53
2023/05/14 23:13:49;;;;;;;;;;;;;;;13.27;80.89;97657.31;10279669;28;20077;-53
2023/05/14 23:18:48;;;;;;;9.93;7.47;;;;;;;13.41;80.16;97649.31;10279525;28;20269;-53
2023/05/14 23:23:47;;;;;;;;;;;;;;;13.44;79.91;97644.91;10279770;28;20029;-53
2023/05/14 23:28:46;;;;;;;10.75;7.55;;;;;;;13.44;79.38;97634.47;10278340;28;19961;-53
2023/05/14 23:33:45;;;;;;;;;;;;;;;13.43;79.57;97618.88;10279990;28;20096;-53